sensor_id;sensor_type;location;lat;lon;timestamp;P1;durP1;ratioP1;P2;durP2;ratioP2
76617;SDS011;65509;42.816;74.648;2023-12-22T00:00:03;38.47;;;10.60;;
76617;SDS011;65509;42.816;74.648;2023-12-22T00:02:30;26.52;;;5.60;;
76617;SDS011;65509;42.816;74.648;2023-12-22T00:04:55;35.60;;;5.68;;
76617;SDS011;65509;42.816;74.648;2023-12-22T00:07:20;26.38;;;6.63;;
76617;SDS011;65509;42.816;74.648;2023-12-22T00:09:46;29.27;;;6.32;;
76617;SDS011;65509;42.816;74.648;2023-12-22T00:12:11;32.38;;;5.85;;
76617;SDS011;65509;42.816;74.648;2023-12-22T00:14:37;30.35;;;5.97;;
76617;SDS011;65509;42.816;74.648;2023-12-22T00:17:05;22.65;;;5.43;;
76617;SDS011;65509;42.816;74.648;2023-12-22T00:19:31;18.83;;;4.45;;
76617;SDS011;65509;42.816;74.648;2023-12-22T00:21:56;36.03;;;6.65;;
76617;SDS011;65509;42.816;74.648;2023-12-22T00:24:23;26.35;;;5.53;;
76617;SDS011;65509;42.816;74.648;2023-12-22T00:26:48;37.17;;;7.07;;
76617;SDS011;65509;42.816;74.648;2023-12-22T00:29:14;33.08;;;7.80;;
76617;SDS011;65509;42.816;74.648;2023-12-22T00:31:39;23.40;;;5.60;;
76617;SDS011;65509;42.816;74.648;2023-12-22T00:34:04;20.75;;;5.05;;
76617;SDS011;65509;42.816;74.648;2023-12-22T00:36:30;24.83;;;3.85;;
76617;SDS011;65509;42.816;74.648;2023-12-22T00:38:55;22.08;;;3.40;;
76617;SDS011;65509;42.816;74.648;2023-12-22T00:41:21;19.92;;;4.15;;
76617;SDS011;65509;42.816;74.648;2023-12-22T00:43:46;35.67;;;5.65;;
76617;SDS011;65509;42.816;74.648;2023-12-22T00:46:12;24.48;;;5.05;;
76617;SDS011;65509;42.816;74.648;2023-12-22T00:48:38;27.27;;;5.35;;
76617;SDS011;65509;42.816;74.648;2023-12-22T00:51:03;23.58;;;5.22;;
76617;SDS011;65509;42.816;74.648;2023-12-22T00:53:30;27.17;;;6.50;;
76617;SDS011;65509;42.816;74.648;2023-12-22T00:55:55;33.35;;;7.32;;
76617;SDS011;65509;42.816;74.648;2023-12-22T00:58:21;27.50;;;6.15;;
76617;SDS011;65509;42.816;74.648;2023-12-22T01:00:46;30.20;;;6.97;;
76617;SDS011;65509;42.816;74.648;2023-12-22T01:03:12;38.15;;;9.82;;
76617;SDS011;65509;42.816;74.648;2023-12-22T01:05:38;31.67;;;9.68;;
76617;SDS011;65509;42.816;74.648;2023-12-22T01:08:03;39.03;;;10.43;;
76617;SDS011;65509;42.816;74.648;2023-12-22T01:10:29;32.55;;;11.75;;
76617;SDS011;65509;42.816;74.648;2023-12-22T01:12:54;37.90;;;10.70;;
76617;SDS011;65509;42.816;74.648;2023-12-22T01:15:20;34.47;;;11.00;;
76617;SDS011;65509;42.816;74.648;2023-12-22T01:17:45;30.92;;;9.90;;
76617;SDS011;65509;42.816;74.648;2023-12-22T01:20:10;32.67;;;8.77;;
76617;SDS011;65509;42.816;74.648;2023-12-22T01:22:36;25.83;;;7.25;;
76617;SDS011;65509;42.816;74.648;2023-12-22T01:25:04;39.97;;;11.25;;
76617;SDS011;65509;42.816;74.648;2023-12-22T01:27:30;47.50;;;18.55;;
76617;SDS011;65509;42.816;74.648;2023-12-22T01:29:55;70.85;;;23.05;;
76617;SDS011;65509;42.816;74.648;2023-12-22T01:32:21;44.63;;;16.90;;
76617;SDS011;65509;42.816;74.648;2023-12-22T01:34:46;45.08;;;15.55;;
76617;SDS011;65509;42.816;74.648;2023-12-22T01:37:12;37.75;;;11.60;;
76617;SDS011;65509;42.816;74.648;2023-12-22T01:39:37;39.00;;;10.80;;
76617;SDS011;65509;42.816;74.648;2023-12-22T01:42:03;44.60;;;9.25;;
76617;SDS011;65509;42.816;74.648;2023-12-22T01:44:28;33.40;;;9.25;;
76617;SDS011;65509;42.816;74.648;2023-12-22T01:46:56;46.10;;;10.65;;
76617;SDS011;65509;42.816;74.648;2023-12-22T01:49:21;29.85;;;10.00;;
76617;SDS011;65509;42.816;74.648;2023-12-22T01:51:48;33.00;;;11.75;;
76617;SDS011;65509;42.816;74.648;2023-12-22T01:54:14;34.10;;;10.88;;
76617;SDS011;65509;42.816;74.648;2023-12-22T01:56:44;30.85;;;10.27;;
76617;SDS011;65509;42.816;74.648;2023-12-22T01:59:09;32.33;;;8.93;;
76617;SDS011;65509;42.816;74.648;2023-12-22T02:01:35;30.73;;;9.57;;
76617;SDS011;65509;42.816;74.648;2023-12-22T02:04:00;42.03;;;8.80;;
76617;SDS011;65509;42.816;74.648;2023-12-22T02:06:27;30.38;;;8.65;;
76617;SDS011;65509;42.816;74.648;2023-12-22T02:08:55;40.10;;;9.27;;
76617;SDS011;65509;42.816;74.648;2023-12-22T02:11:20;26.45;;;10.88;;
76617;SDS011;65509;42.816;74.648;2023-12-22T02:13:46;27.65;;;11.80;;
76617;SDS011;65509;42.816;74.648;2023-12-22T02:16:57;38.20;;;11.50;;
76617;SDS011;65509;42.816;74.648;2023-12-22T02:19:04;52.80;;;18.60;;
76617;SDS011;65509;42.816;74.648;2023-12-22T02:21:34;42.90;;;17.50;;
76617;SDS011;65509;42.816;74.648;2023-12-22T02:24:02;73.70;;;21.00;;
76617;SDS011;65509;42.816;74.648;2023-12-22T02:26:29;68.82;;;23.13;;
76617;SDS011;65509;42.816;74.648;2023-12-22T02:28:58;120.68;;;46.20;;
76617;SDS011;65509;42.816;74.648;2023-12-22T02:31:46;212.07;;;93.70;;
76617;SDS011;65509;42.816;74.648;2023-12-22T02:34:15;98.75;;;38.22;;
76617;SDS011;65509;42.816;74.648;2023-12-22T02:36:42;56.13;;;22.30;;
76617;SDS011;65509;42.816;74.648;2023-12-22T02:39:08;60.53;;;26.00;;
76617;SDS011;65509;42.816;74.648;2023-12-22T02:41:34;115.10;;;47.13;;
76617;SDS011;65509;42.816;74.648;2023-12-22T02:44:00;132.70;;;53.58;;
76617;SDS011;65509;42.816;74.648;2023-12-22T02:46:25;67.18;;;22.25;;
76617;SDS011;65509;42.816;74.648;2023-12-22T02:48:51;41.83;;;12.43;;
76617;SDS011;65509;42.816;74.648;2023-12-22T02:51:16;31.80;;;10.35;;
76617;SDS011;65509;42.816;74.648;2023-12-22T02:53:42;59.83;;;18.90;;
76617;SDS011;65509;42.816;74.648;2023-12-22T02:56:10;49.42;;;18.70;;
76617;SDS011;65509;42.816;74.648;2023-12-22T02:58:35;44.55;;;13.40;;
76617;SDS011;65509;42.816;74.648;2023-12-22T03:01:01;43.50;;;9.88;;
76617;SDS011;65509;42.816;74.648;2023-12-22T03:03:27;30.95;;;11.30;;
76617;SDS011;65509;42.816;74.648;2023-12-22T03:05:52;43.70;;;15.02;;
76617;SDS011;65509;42.816;74.648;2023-12-22T03:08:17;43.63;;;19.50;;
76617;SDS011;65509;42.816;74.648;2023-12-22T03:10:43;41.95;;;18.45;;
76617;SDS011;65509;42.816;74.648;2023-12-22T03:13:11;85.63;;;23.08;;
76617;SDS011;65509;42.816;74.648;2023-12-22T03:15:37;46.92;;;19.95;;
76617;SDS011;65509;42.816;74.648;2023-12-22T03:18:02;60.53;;;19.38;;
76617;SDS011;65509;42.816;74.648;2023-12-22T03:20:28;59.35;;;27.30;;
76617;SDS011;65509;42.816;74.648;2023-12-22T03:22:53;72.60;;;29.75;;
76617;SDS011;65509;42.816;74.648;2023-12-22T03:25:18;55.42;;;23.88;;
76617;SDS011;65509;42.816;74.648;2023-12-22T03:27:44;50.55;;;22.30;;
76617;SDS011;65509;42.816;74.648;2023-12-22T03:30:10;52.90;;;25.40;;
76617;SDS011;65509;42.816;74.648;2023-12-22T03:32:35;53.47;;;24.92;;
76617;SDS011;65509;42.816;74.648;2023-12-22T03:35:01;46.88;;;19.00;;
76617;SDS011;65509;42.816;74.648;2023-12-22T03:37:26;44.20;;;15.55;;
76617;SDS011;65509;42.816;74.648;2023-12-22T03:39:51;34.95;;;13.55;;
76617;SDS011;65509;42.816;74.648;2023-12-22T03:42:17;24.85;;;10.50;;
76617;SDS011;65509;42.816;74.648;2023-12-22T03:44:42;55.20;;;19.38;;
76617;SDS011;65509;42.816;74.648;2023-12-22T03:47:08;80.97;;;25.80;;
76617;SDS011;65509;42.816;74.648;2023-12-22T03:49:33;49.28;;;19.52;;
76617;SDS011;65509;42.816;74.648;2023-12-22T03:51:59;40.05;;;12.70;;
76617;SDS011;65509;42.816;74.648;2023-12-22T03:54:24;42.17;;;14.63;;
76617;SDS011;65509;42.816;74.648;2023-12-22T03:56:49;47.40;;;18.30;;
76617;SDS011;65509;42.816;74.648;2023-12-22T03:59:15;46.08;;;16.20;;
76617;SDS011;65509;42.816;74.648;2023-12-22T04:01:43;38.00;;;13.38;;
76617;SDS011;65509;42.816;74.648;2023-12-22T04:04:09;49.63;;;14.23;;
76617;SDS011;65509;42.816;74.648;2023-12-22T04:06:37;35.05;;;12.32;;
76617;SDS011;65509;42.816;74.648;2023-12-22T04:09:03;56.47;;;13.20;;
76617;SDS011;65509;42.816;74.648;2023-12-22T04:11:28;36.03;;;14.18;;
76617;SDS011;65509;42.816;74.648;2023-12-22T04:13:54;26.60;;;10.75;;
76617;SDS011;65509;42.816;74.648;2023-12-22T04:16:19;38.63;;;12.88;;
76617;SDS011;65509;42.816;74.648;2023-12-22T04:18:44;29.30;;;10.63;;
76617;SDS011;65509;42.816;74.648;2023-12-22T04:21:10;52.05;;;19.48;;
76617;SDS011;65509;42.816;74.648;2023-12-22T04:23:35;51.30;;;21.33;;
76617;SDS011;65509;42.816;74.648;2023-12-22T04:26:01;56.17;;;23.13;;
76617;SDS011;65509;42.816;74.648;2023-12-22T04:28:27;61.47;;;27.17;;
76617;SDS011;65509;42.816;74.648;2023-12-22T04:30:52;54.88;;;25.58;;
76617;SDS011;65509;42.816;74.648;2023-12-22T04:33:21;49.72;;;22.67;;
76617;SDS011;65509;42.816;74.648;2023-12-22T04:35:46;55.78;;;23.90;;
76617;SDS011;65509;42.816;74.648;2023-12-22T04:38:11;62.53;;;24.17;;
76617;SDS011;65509;42.816;74.648;2023-12-22T04:40:37;53.45;;;25.95;;
76617;SDS011;65509;42.816;74.648;2023-12-22T04:43:02;65.53;;;24.92;;
76617;SDS011;65509;42.816;74.648;2023-12-22T04:45:28;43.45;;;22.85;;
76617;SDS011;65509;42.816;74.648;2023-12-22T04:47:53;57.53;;;25.48;;
76617;SDS011;65509;42.816;74.648;2023-12-22T04:50:19;53.88;;;25.35;;
76617;SDS011;65509;42.816;74.648;2023-12-22T04:52:44;48.20;;;23.98;;
76617;SDS011;65509;42.816;74.648;2023-12-22T04:55:10;55.92;;;23.10;;
76617;SDS011;65509;42.816;74.648;2023-12-22T04:57:35;37.55;;;18.75;;
76617;SDS011;65509;42.816;74.648;2023-12-22T05:00:00;56.55;;;19.45;;
76617;SDS011;65509;42.816;74.648;2023-12-22T05:02:26;38.60;;;18.48;;
76617;SDS011;65509;42.816;74.648;2023-12-22T05:04:51;38.15;;;19.17;;
76617;SDS011;65509;42.816;74.648;2023-12-22T05:07:16;40.35;;;19.58;;
76617;SDS011;65509;42.816;74.648;2023-12-22T05:09:42;42.10;;;19.75;;
76617;SDS011;65509;42.816;74.648;2023-12-22T05:12:07;58.13;;;21.50;;
76617;SDS011;65509;42.816;74.648;2023-12-22T05:14:33;41.88;;;18.80;;
76617;SDS011;65509;42.816;74.648;2023-12-22T05:16:58;44.78;;;18.42;;
76617;SDS011;65509;42.816;74.648;2023-12-22T05:19:24;42.53;;;19.70;;
76617;SDS011;65509;42.816;74.648;2023-12-22T05:21:49;65.43;;;36.88;;
76617;SDS011;65509;42.816;74.648;2023-12-22T05:24:17;53.67;;;28.73;;
76617;SDS011;65509;42.816;74.648;2023-12-22T05:26:43;47.30;;;24.50;;
76617;SDS011;65509;42.816;74.648;2023-12-22T05:29:08;47.83;;;23.25;;
76617;SDS011;65509;42.816;74.648;2023-12-22T05:31:38;46.72;;;21.08;;
76617;SDS011;65509;42.816;74.648;2023-12-22T05:34:03;66.47;;;21.90;;
76617;SDS011;65509;42.816;74.648;2023-12-22T05:36:31;45.47;;;20.05;;
76617;SDS011;65509;42.816;74.648;2023-12-22T05:38:57;43.90;;;18.13;;
76617;SDS011;65509;42.816;74.648;2023-12-22T05:41:23;47.15;;;20.65;;
76617;SDS011;65509;42.816;74.648;2023-12-22T05:43:48;36.83;;;17.90;;
76617;SDS011;65509;42.816;74.648;2023-12-22T05:46:14;58.17;;;20.70;;
76617;SDS011;65509;42.816;74.648;2023-12-22T05:48:39;39.35;;;15.93;;
76617;SDS011;65509;42.816;74.648;2023-12-22T05:51:04;41.38;;;10.98;;
76617;SDS011;65509;42.816;74.648;2023-12-22T05:53:32;41.63;;;10.63;;
76617;SDS011;65509;42.816;74.648;2023-12-22T05:55:58;31.70;;;9.98;;
76617;SDS011;65509;42.816;74.648;2023-12-22T05:58:23;22.77;;;10.52;;
76617;SDS011;65509;42.816;74.648;2023-12-22T06:00:49;47.85;;;19.80;;
76617;SDS011;65509;42.816;74.648;2023-12-22T06:03:14;50.42;;;19.92;;
76617;SDS011;65509;42.816;74.648;2023-12-22T06:05:40;41.17;;;16.00;;
76617;SDS011;65509;42.816;74.648;2023-12-22T06:08:05;45.97;;;14.95;;
76617;SDS011;65509;42.816;74.648;2023-12-22T06:10:31;36.50;;;13.95;;
76617;SDS011;65509;42.816;74.648;2023-12-22T06:12:56;35.15;;;12.88;;
76617;SDS011;65509;42.816;74.648;2023-12-22T06:15:28;58.22;;;21.40;;
76617;SDS011;65509;42.816;74.648;2023-12-22T06:17:53;40.20;;;15.50;;
76617;SDS011;65509;42.816;74.648;2023-12-22T06:20:19;34.70;;;13.90;;
76617;SDS011;65509;42.816;74.648;2023-12-22T06:22:44;31.52;;;14.90;;
76617;SDS011;65509;42.816;74.648;2023-12-22T06:25:12;41.38;;;11.52;;
76617;SDS011;65509;42.816;74.648;2023-12-22T06:27:37;24.42;;;9.75;;
76617;SDS011;65509;42.816;74.648;2023-12-22T06:30:04;34.33;;;10.93;;
76617;SDS011;65509;42.816;74.648;2023-12-22T06:32:30;35.55;;;13.55;;
76617;SDS011;65509;42.816;74.648;2023-12-22T06:34:55;31.27;;;12.13;;
76617;SDS011;65509;42.816;74.648;2023-12-22T06:37:20;31.05;;;10.93;;
76617;SDS011;65509;42.816;74.648;2023-12-22T06:39:46;35.92;;;13.85;;
76617;SDS011;65509;42.816;74.648;2023-12-22T06:42:11;52.90;;;15.00;;
76617;SDS011;65509;42.816;74.648;2023-12-22T06:44:37;41.35;;;14.82;;
76617;SDS011;65509;42.816;74.648;2023-12-22T06:47:03;39.05;;;14.73;;
76617;SDS011;65509;42.816;74.648;2023-12-22T06:49:28;27.95;;;13.65;;
76617;SDS011;65509;42.816;74.648;2023-12-22T06:51:54;36.53;;;13.77;;
76617;SDS011;65509;42.816;74.648;2023-12-22T06:54:19;30.23;;;11.63;;
76617;SDS011;65509;42.816;74.648;2023-12-22T06:56:45;30.77;;;12.52;;
76617;SDS011;65509;42.816;74.648;2023-12-22T06:59:10;38.50;;;12.25;;
76617;SDS011;65509;42.816;74.648;2023-12-22T07:01:37;35.63;;;12.30;;
76617;SDS011;65509;42.816;74.648;2023-12-22T07:04:03;36.78;;;13.35;;
76617;SDS011;65509;42.816;74.648;2023-12-22T07:06:32;54.25;;;27.00;;
76617;SDS011;65509;42.816;74.648;2023-12-22T07:11:36;38.25;;;15.93;;
76617;SDS011;65509;42.816;74.648;2023-12-22T07:14:02;37.75;;;14.57;;
76617;SDS011;65509;42.816;74.648;2023-12-22T07:16:27;26.25;;;9.27;;
76617;SDS011;65509;42.816;74.648;2023-12-22T07:18:53;23.48;;;7.40;;
76617;SDS011;65509;42.816;74.648;2023-12-22T07:21:18;66.97;;;24.58;;
76617;SDS011;65509;42.816;74.648;2023-12-22T07:23:44;40.25;;;14.45;;
76617;SDS011;65509;42.816;74.648;2023-12-22T07:26:10;38.80;;;11.27;;
76617;SDS011;65509;42.816;74.648;2023-12-22T07:28:35;41.50;;;14.80;;
76617;SDS011;65509;42.816;74.648;2023-12-22T07:31:01;26.33;;;8.05;;
76617;SDS011;65509;42.816;74.648;2023-12-22T07:33:26;23.60;;;7.25;;
76617;SDS011;65509;42.816;74.648;2023-12-22T07:35:52;21.05;;;7.55;;
76617;SDS011;65509;42.816;74.648;2023-12-22T07:38:17;48.22;;;12.35;;
76617;SDS011;65509;42.816;74.648;2023-12-22T07:40:43;88.70;;;35.53;;
76617;SDS011;65509;42.816;74.648;2023-12-22T07:43:08;91.68;;;40.35;;
76617;SDS011;65509;42.816;74.648;2023-12-22T07:45:33;64.18;;;29.42;;
76617;SDS011;65509;42.816;74.648;2023-12-22T07:48:01;68.30;;;30.48;;
76617;SDS011;65509;42.816;74.648;2023-12-22T07:50:27;66.15;;;32.42;;
76617;SDS011;65509;42.816;74.648;2023-12-22T07:52:52;75.32;;;35.30;;
76617;SDS011;65509;42.816;74.648;2023-12-22T07:55:18;65.00;;;32.58;;
76617;SDS011;65509;42.816;74.648;2023-12-22T07:57:43;70.25;;;28.58;;
76617;SDS011;65509;42.816;74.648;2023-12-22T08:00:10;66.00;;;27.58;;
76617;SDS011;65509;42.816;74.648;2023-12-22T08:02:36;58.70;;;28.98;;
76617;SDS011;65509;42.816;74.648;2023-12-22T08:05:01;68.43;;;30.75;;
76617;SDS011;65509;42.816;74.648;2023-12-22T08:07:26;76.13;;;35.22;;
76617;SDS011;65509;42.816;74.648;2023-12-22T08:09:52;68.50;;;32.35;;
76617;SDS011;65509;42.816;74.648;2023-12-22T08:12:17;74.45;;;31.85;;
76617;SDS011;65509;42.816;74.648;2023-12-22T08:14:43;59.85;;;30.10;;
76617;SDS011;65509;42.816;74.648;2023-12-22T08:17:08;77.88;;;31.15;;
76617;SDS011;65509;42.816;74.648;2023-12-22T08:19:35;58.28;;;28.83;;
76617;SDS011;65509;42.816;74.648;2023-12-22T08:22:01;53.45;;;28.80;;
76617;SDS011;65509;42.816;74.648;2023-12-22T08:24:27;55.30;;;25.63;;
76617;SDS011;65509;42.816;74.648;2023-12-22T08:26:52;48.85;;;19.27;;
76617;SDS011;65509;42.816;74.648;2023-12-22T08:29:18;54.30;;;16.33;;
76617;SDS011;65509;42.816;74.648;2023-12-22T08:31:46;45.20;;;15.57;;
76617;SDS011;65509;42.816;74.648;2023-12-22T08:34:12;47.08;;;12.07;;
76617;SDS011;65509;42.816;74.648;2023-12-22T08:36:37;39.83;;;13.35;;
76617;SDS011;65509;42.816;74.648;2023-12-22T08:39:02;41.63;;;11.98;;
76617;SDS011;65509;42.816;74.648;2023-12-22T08:41:30;81.60;;;32.10;;
76617;SDS011;65509;42.816;74.648;2023-12-22T08:44:01;73.68;;;32.50;;
76617;SDS011;65509;42.816;74.648;2023-12-22T08:46:26;55.05;;;22.27;;
76617;SDS011;65509;42.816;74.648;2023-12-22T08:48:52;46.42;;;16.15;;
76617;SDS011;65509;42.816;74.648;2023-12-22T08:51:17;80.63;;;22.38;;
76617;SDS011;65509;42.816;74.648;2023-12-22T08:53:42;44.03;;;13.30;;
76617;SDS011;65509;42.816;74.648;2023-12-22T08:56:08;55.00;;;17.13;;
76617;SDS011;65509;42.816;74.648;2023-12-22T08:58:33;62.10;;;21.27;;
76617;SDS011;65509;42.816;74.648;2023-12-22T09:00:59;45.63;;;12.40;;
76617;SDS011;65509;42.816;74.648;2023-12-22T09:03:24;49.85;;;12.32;;
76617;SDS011;65509;42.816;74.648;2023-12-22T09:05:52;41.65;;;13.45;;
76617;SDS011;65509;42.816;74.648;2023-12-22T09:08:17;65.75;;;19.10;;
76617;SDS011;65509;42.816;74.648;2023-12-22T09:10:43;43.55;;;15.43;;
76617;SDS011;65509;42.816;74.648;2023-12-22T09:13:08;52.30;;;16.30;;
76617;SDS011;65509;42.816;74.648;2023-12-22T09:15:34;56.95;;;18.02;;
76617;SDS011;65509;42.816;74.648;2023-12-22T09:17:59;59.05;;;18.48;;
76617;SDS011;65509;42.816;74.648;2023-12-22T09:20:24;68.32;;;19.95;;
76617;SDS011;65509;42.816;74.648;2023-12-22T09:22:50;52.80;;;20.27;;
76617;SDS011;65509;42.816;74.648;2023-12-22T09:25:15;62.90;;;21.27;;
76617;SDS011;65509;42.816;74.648;2023-12-22T09:27:41;54.00;;;21.40;;
76617;SDS011;65509;42.816;74.648;2023-12-22T09:30:06;63.10;;;22.95;;
76617;SDS011;65509;42.816;74.648;2023-12-22T09:32:32;60.75;;;23.10;;
76617;SDS011;65509;42.816;74.648;2023-12-22T09:34:58;61.03;;;24.95;;
76617;SDS011;65509;42.816;74.648;2023-12-22T09:37:25;73.30;;;23.75;;
76617;SDS011;65509;42.816;74.648;2023-12-22T09:39:50;55.83;;;23.48;;
76617;SDS011;65509;42.816;74.648;2023-12-22T09:42:16;93.40;;;27.27;;
76617;SDS011;65509;42.816;74.648;2023-12-22T09:44:44;83.22;;;30.33;;
76617;SDS011;65509;42.816;74.648;2023-12-22T09:47:10;69.10;;;27.10;;
76617;SDS011;65509;42.816;74.648;2023-12-22T09:49:37;73.78;;;33.10;;
76617;SDS011;65509;42.816;74.648;2023-12-22T09:52:03;72.25;;;28.92;;
76617;SDS011;65509;42.816;74.648;2023-12-22T09:54:30;73.30;;;30.33;;
76617;SDS011;65509;42.816;74.648;2023-12-22T09:56:56;91.20;;;31.25;;
76617;SDS011;65509;42.816;74.648;2023-12-22T09:59:22;88.13;;;33.50;;
76617;SDS011;65509;42.816;74.648;2023-12-22T10:01:49;73.28;;;33.10;;
76617;SDS011;65509;42.816;74.648;2023-12-22T10:04:16;74.20;;;33.35;;
76617;SDS011;65509;42.816;74.648;2023-12-22T10:06:41;76.43;;;34.75;;
76617;SDS011;65509;42.816;74.648;2023-12-22T10:09:09;100.97;;;45.95;;
76617;SDS011;65509;42.816;74.648;2023-12-22T10:11:36;88.13;;;45.58;;
76617;SDS011;65509;42.816;74.648;2023-12-22T10:14:02;118.57;;;56.40;;
76617;SDS011;65509;42.816;74.648;2023-12-22T10:16:31;128.48;;;71.20;;
76617;SDS011;65509;42.816;74.648;2023-12-22T10:18:56;96.18;;;50.28;;
76617;SDS011;65509;42.816;74.648;2023-12-22T10:21:23;167.70;;;86.80;;
76617;SDS011;65509;42.816;74.648;2023-12-22T10:23:49;120.63;;;60.47;;
76617;SDS011;65509;42.816;74.648;2023-12-22T10:26:14;127.63;;;59.55;;
76617;SDS011;65509;42.816;74.648;2023-12-22T10:28:41;106.90;;;53.28;;
76617;SDS011;65509;42.816;74.648;2023-12-22T10:31:08;114.80;;;55.85;;
76617;SDS011;65509;42.816;74.648;2023-12-22T10:33:34;118.07;;;58.38;;
76617;SDS011;65509;42.816;74.648;2023-12-22T10:35:59;112.18;;;59.00;;
76617;SDS011;65509;42.816;74.648;2023-12-22T10:38:25;123.55;;;58.63;;
76617;SDS011;65509;42.816;74.648;2023-12-22T10:40:51;108.85;;;58.55;;
76617;SDS011;65509;42.816;74.648;2023-12-22T10:43:16;118.28;;;55.75;;
76617;SDS011;65509;42.816;74.648;2023-12-22T10:45:42;116.53;;;61.85;;
76617;SDS011;65509;42.816;74.648;2023-12-22T10:48:07;118.85;;;59.33;;
76617;SDS011;65509;42.816;74.648;2023-12-22T10:50:33;111.60;;;61.47;;
76617;SDS011;65509;42.816;74.648;2023-12-22T10:52:58;109.72;;;58.15;;
76617;SDS011;65509;42.816;74.648;2023-12-22T10:55:24;116.10;;;59.30;;
76617;SDS011;65509;42.816;74.648;2023-12-22T10:57:52;133.80;;;60.72;;
76617;SDS011;65509;42.816;74.648;2023-12-22T11:00:19;111.57;;;55.90;;
76617;SDS011;65509;42.816;74.648;2023-12-22T11:02:47;98.82;;;55.80;;
76617;SDS011;65509;42.816;74.648;2023-12-22T11:05:13;123.30;;;56.00;;
76617;SDS011;65509;42.816;74.648;2023-12-22T11:07:43;94.95;;;49.53;;
76617;SDS011;65509;42.816;74.648;2023-12-22T11:10:10;83.45;;;46.42;;
76617;SDS011;65509;42.816;74.648;2023-12-22T11:12:37;92.90;;;50.97;;
76617;SDS011;65509;42.816;74.648;2023-12-22T11:15:03;112.85;;;51.08;;
76617;SDS011;65509;42.816;74.648;2023-12-22T11:17:32;103.55;;;53.35;;
76617;SDS011;65509;42.816;74.648;2023-12-22T11:19:57;120.90;;;60.30;;
76617;SDS011;65509;42.816;74.648;2023-12-22T11:22:23;127.88;;;61.25;;
76617;SDS011;65509;42.816;74.648;2023-12-22T11:24:49;129.20;;;67.80;;
76617;SDS011;65509;42.816;74.648;2023-12-22T11:27:18;129.15;;;66.90;;
76617;SDS011;65509;42.816;74.648;2023-12-22T11:29:47;135.98;;;68.28;;
76617;SDS011;65509;42.816;74.648;2023-12-22T11:32:14;133.43;;;66.15;;
76617;SDS011;65509;42.816;74.648;2023-12-22T11:34:40;140.50;;;74.80;;
76617;SDS011;65509;42.816;74.648;2023-12-22T11:37:07;127.75;;;66.30;;
76617;SDS011;65509;42.816;74.648;2023-12-22T11:39:33;133.63;;;72.85;;
76617;SDS011;65509;42.816;74.648;2023-12-22T11:41:58;122.28;;;66.43;;
76617;SDS011;65509;42.816;74.648;2023-12-22T11:44:25;208.52;;;96.18;;
76617;SDS011;65509;42.816;74.648;2023-12-22T11:47:02;188.32;;;87.85;;
76617;SDS011;65509;42.816;74.648;2023-12-22T11:49:34;136.32;;;63.95;;
76617;SDS011;65509;42.816;74.648;2023-12-22T11:52:08;131.20;;;47.28;;
76617;SDS011;65509;42.816;74.648;2023-12-22T11:56:59;121.63;;;59.97;;
76617;SDS011;65509;42.816;74.648;2023-12-22T11:59:28;124.78;;;47.22;;
76617;SDS011;65509;42.816;74.648;2023-12-22T12:02:04;145.00;;;73.50;;
76617;SDS011;65509;42.816;74.648;2023-12-22T12:04:33;130.80;;;66.13;;
76617;SDS011;65509;42.816;74.648;2023-12-22T12:06:58;137.35;;;50.22;;
76617;SDS011;65509;42.816;74.648;2023-12-22T12:09:44;159.38;;;52.92;;
76617;SDS011;65509;42.816;74.648;2023-12-22T12:12:09;161.80;;;86.88;;
76617;SDS011;65509;42.816;74.648;2023-12-22T12:14:37;170.30;;;63.35;;
76617;SDS011;65509;42.816;74.648;2023-12-22T12:17:08;185.60;;;63.42;;
76617;SDS011;65509;42.816;74.648;2023-12-22T12:19:37;188.60;;;102.28;;
76617;SDS011;65509;42.816;74.648;2023-12-22T12:22:04;171.75;;;94.20;;
76617;SDS011;65509;42.816;74.648;2023-12-22T12:24:30;182.07;;;64.40;;
76617;SDS011;65509;42.816;74.648;2023-12-22T12:26:55;163.65;;;91.88;;
76617;SDS011;65509;42.816;74.648;2023-12-22T12:29:21;172.68;;;56.25;;
76617;SDS011;65509;42.816;74.648;2023-12-22T12:31:47;159.30;;;58.88;;
76617;SDS011;65509;42.816;74.648;2023-12-22T12:34:12;151.55;;;78.22;;
76617;SDS011;65509;42.816;74.648;2023-12-22T12:36:39;145.02;;;54.92;;
76617;SDS011;65509;42.816;74.648;2023-12-22T12:39:06;133.02;;;52.13;;
76617;SDS011;65509;42.816;74.648;2023-12-22T12:41:36;163.13;;;55.85;;
76617;SDS011;65509;42.816;74.648;2023-12-22T12:44:05;137.73;;;74.68;;
76617;SDS011;65509;42.816;74.648;2023-12-22T12:46:37;154.88;;;52.30;;
76617;SDS011;65509;42.816;74.648;2023-12-22T12:49:04;138.60;;;47.70;;
76617;SDS011;65509;42.816;74.648;2023-12-22T12:51:35;147.00;;;75.97;;
76617;SDS011;65509;42.816;74.648;2023-12-22T12:54:04;154.80;;;53.67;;
76617;SDS011;65509;42.816;74.648;2023-12-22T12:56:35;162.57;;;54.15;;
76617;SDS011;65509;42.816;74.648;2023-12-22T12:59:01;177.70;;;59.90;;
76617;SDS011;65509;42.816;74.648;2023-12-22T13:01:26;176.43;;;84.07;;
76617;SDS011;65509;42.816;74.648;2023-12-22T13:03:53;160.25;;;55.20;;
76617;SDS011;65509;42.816;74.648;2023-12-22T13:06:19;158.73;;;57.17;;
76617;SDS011;65509;42.816;74.648;2023-12-22T13:08:51;160.05;;;57.75;;
76617;SDS011;65509;42.816;74.648;2023-12-22T13:11:22;176.30;;;62.60;;
76617;SDS011;65509;42.816;74.648;2023-12-22T13:13:48;178.23;;;65.32;;
76617;SDS011;65509;42.816;74.648;2023-12-22T13:16:18;205.27;;;68.80;;
76617;SDS011;65509;42.816;74.648;2023-12-22T13:18:44;201.55;;;73.80;;
76617;SDS011;65509;42.816;74.648;2023-12-22T13:21:10;195.55;;;69.90;;
76617;SDS011;65509;42.816;74.648;2023-12-22T13:23:35;212.13;;;109.25;;
76617;SDS011;65509;42.816;74.648;2023-12-22T13:26:03;192.13;;;64.95;;
76617;SDS011;65509;42.816;74.648;2023-12-22T13:28:29;181.50;;;61.55;;
76617;SDS011;65509;42.816;74.648;2023-12-22T13:30:58;187.40;;;59.47;;
76617;SDS011;65509;42.816;74.648;2023-12-22T13:33:23;145.85;;;79.60;;
76617;SDS011;65509;42.816;74.648;2023-12-22T13:35:56;147.10;;;75.20;;
76617;SDS011;65509;42.816;74.648;2023-12-22T13:38:22;166.13;;;56.70;;
76617;SDS011;65509;42.816;74.648;2023-12-22T13:40:47;161.05;;;57.90;;
76617;SDS011;65509;42.816;74.648;2023-12-22T13:43:15;169.82;;;58.58;;
76617;SDS011;65509;42.816;74.648;2023-12-22T13:45:41;172.70;;;59.10;;
76617;SDS011;65509;42.816;74.648;2023-12-22T13:48:06;158.45;;;91.35;;
76617;SDS011;65509;42.816;74.648;2023-12-22T13:50:32;169.98;;;90.38;;
76617;SDS011;65509;42.816;74.648;2023-12-22T13:53:10;186.63;;;62.35;;
76617;SDS011;65509;42.816;74.648;2023-12-22T13:55:36;187.98;;;62.05;;
76617;SDS011;65509;42.816;74.648;2023-12-22T13:58:02;181.75;;;91.38;;
76617;SDS011;65509;42.816;74.648;2023-12-22T14:00:28;167.55;;;87.80;;
76617;SDS011;65509;42.816;74.648;2023-12-22T14:02:57;214.63;;;69.30;;
76617;SDS011;65509;42.816;74.648;2023-12-22T14:05:23;161.70;;;90.22;;